Time;durP1;ratioP1;P1;durP2;ratioP2;P2;SDS_P1;SDS_P2;PMS_P1;PMS_P2;Temp;Humidity;BMP_temperature;BMP_pressure;BME280_temperature;BME280_humidity;BME280_pressure;Samples;Min_cycle;Max_cycle;Signal;HPM_P1;HPM_P2
2023/09/02 00:02:29;;;;;;;7.68;4.10;;;13.60;99.90;;;;;;6194062;23;20028;-83
2023/09/02 00:05:17;;;;;;;6.57;4.28;;;13.50;99.90;;;;;;6195509;23;20035;-84
2023/09/02 00:08:04;;;;;;;11.35;4.28;;;13.50;99.90;;;;;;6217669;23;20122;-84
2023/09/02 00:10:55;;;;;;;7.57;3.78;;;13.40;99.90;;;;;;6217641;23;20385;-84
2023/09/02 00:14:00;;;;;;;7.60;4.45;;;13.40;99.90;;;;;;6198756;23;20024;-82
2023/09/02 00:16:52;;;;;;;7.88;4.13;;;13.40;99.90;;;;;;6216188;23;20025;-82
2023/09/02 00:19:40;;;;;;;7.68;4.63;;;13.30;99.90;;;;;;6217607;23;20373;-82
2023/09/02 00:22:30;;;;;;;6.30;4.53;;;13.30;99.90;;;;;;6218827;23;20431;-83
2023/09/02 00:25:22;;;;;;;8.82;4.50;;;13.20;99.90;;;;;;6219029;23;20107;-85
2023/09/02 00:28:12;;;;;;;6.60;4.80;;;13.20;99.90;;;;;;6194905;23;20039;-84
2023/09/02 00:30:59;;;;;;;8.32;4.43;;;13.20;99.90;;;;;;6216745;23;20035;-83
2023/09/02 00:33:46;;;;;;;9.93;5.15;;;13.30;99.90;;;;;;6195578;23;20024;-84
2023/09/02 00:36:33;;;;;;;7.13;4.70;;;13.40;99.90;;;;;;6216535;23;20021;-85
2023/09/02 00:39:20;;;;;;;9.75;5.43;;;13.40;99.90;;;;;;6215566;23;20033;-83
2023/09/02 00:42:10;;;;;;;9.95;5.10;;;13.40;99.90;;;;;;6217026;23;20024;-84
2023/09/02 00:44:57;;;;;;;6.72;4.22;;;13.40;99.90;;;;;;6215712;23;20050;-83
2023/09/02 00:47:50;;;;;;;7.15;4.13;;;13.30;99.90;;;;;;6217476;23;20024;-85
2023/09/02 00:50:37;;;;;;;11.52;4.78;;;13.20;99.90;;;;;;6216933;23;20166;-83
2023/09/02 00:53:24;;;;;;;11.80;5.70;;;13.10;99.90;;;;;;6217363;23;20029;-83
2023/09/02 00:56:14;;;;;;;8.93;4.50;;;13.20;99.90;;;;;;6216536;23;20430;-84
2023/09/02 00:59:03;;;;;;;7.40;5.10;;;13.20;99.90;;;;;;6193125;23;20103;-83
2023/09/02 01:01:52;;;;;;;6.53;4.63;;;13.20;99.90;;;;;;6196256;23;20068;-84
2023/09/02 01:04:39;;;;;;;6.90;4.53;;;13.20;99.90;;;;;;6217305;23;20487;-85
2023/09/02 01:07:26;;;;;;;5.93;4.57;;;13.00;99.90;;;;;;6195699;23;20300;-85
2023/09/02 01:10:15;;;;;;;10.07;4.45;;;12.90;99.90;;;;;;6216422;23;20028;-85
2023/09/02 01:13:06;;;;;;;6.35;4.88;;;12.80;99.90;;;;;;6216042;23;20412;-85
2023/09/02 01:15:56;;;;;;;6.00;4.45;;;12.80;99.90;;;;;;6216917;23;20021;-83
2023/09/02 01:18:44;;;;;;;7.53;4.68;;;12.70;99.90;;;;;;6214764;23;20038;-85
2023/09/02 01:22:19;;;;;;;9.93;4.45;;;12.70;99.90;;;;;;6216787;23;20028;-84
2023/09/02 01:25:32;;;;;;;5.75;4.43;;;12.60;99.90;;;;;;6218072;23;20044;-84
2023/09/02 01:28:30;;;;;;;8.13;4.07;;;12.60;99.90;;;;;;6193267;23;20042;-85
2023/09/02 01:31:18;;;;;;;10.15;5.25;;;12.50;99.90;;;;;;6215135;23;20308;-84
2023/09/02 01:34:07;;;;;;;6.18;4.93;;;12.70;99.90;;;;;;6214177;23;20024;-84
2023/09/02 01:36:55;;;;;;;13.93;5.38;;;12.70;99.90;;;;;;6216432;23;20044;-84
2023/09/02 01:39:43;;;;;;;7.43;4.35;;;12.70;99.90;;;;;;6217594;23;20324;-85
2023/09/02 01:42:31;;;;;;;9.10;4.85;;;12.60;99.90;;;;;;6218235;23;20032;-84
2023/09/02 01:45:20;;;;;;;12.57;5.00;;;12.70;99.90;;;;;;6194186;23;20131;-85
2023/09/02 01:48:09;;;;;;;10.88;5.75;;;12.70;99.90;;;;;;6194129;23;20029;-84
2023/09/02 01:50:58;;;;;;;6.72;4.85;;;12.60;99.90;;;;;;6217774;23;20036;-84
2023/09/02 01:53:45;;;;;;;9.27;5.15;;;12.60;99.90;;;;;;6214613;23;20040;-83
2023/09/02 01:56:35;;;;;;;12.55;7.78;;;12.80;99.90;;;;;;6215111;23;20020;-84
2023/09/02 01:59:23;;;;;;;9.07;6.05;;;12.80;99.90;;;;;;6215530;23;20442;-84
2023/09/02 02:02:10;;;;;;;9.18;6.10;;;12.70;99.90;;;;;;6216706;23;20032;-84
2023/09/02 02:05:02;;;;;;;12.98;6.75;;;12.70;99.90;;;;;;6193653;23;20024;-85
2023/09/02 02:07:58;;;;;;;16.23;5.80;;;12.60;99.90;;;;;;6193880;23;20029;-84
2023/09/02 02:10:48;;;;;;;13.65;6.18;;;12.50;99.90;;;;;;6192129;23;20028;-85
2023/09/02 02:13:35;;;;;;;12.90;6.07;;;12.50;99.90;;;;;;6215355;23;20032;-84
2023/09/02 02:16:32;;;;;;;9.27;5.75;;;12.50;99.90;;;;;;6192437;23;20024;-85
2023/09/02 02:19:19;;;;;;;11.73;6.07;;;12.40;99.90;;;;;;6216274;23;20024;-85
2023/09/02 02:22:06;;;;;;;11.23;7.00;;;12.40;99.90;;;;;;6214360;23;20035;-84
2023/09/02 02:24:54;;;;;;;10.25;6.53;;;12.60;99.90;;;;;;6214738;23;20029;-84
2023/09/02 02:27:41;;;;;;;10.93;6.70;;;12.60;99.90;;;;;;6194376;23;20028;-85
2023/09/02 02:30:28;;;;;;;14.85;7.55;;;12.80;99.90;;;;;;6214330;23;20428;-84
2023/09/02 02:33:16;;;;;;;10.15;6.68;;;13.00;99.90;;;;;;6215631;23;20028;-85
2023/09/02 02:36:04;;;;;;;15.23;7.43;;;13.00;99.90;;;;;;6216927;23;20336;-85
2023/09/02 02:38:51;;;;;;;16.90;8.05;;;13.00;99.90;;;;;;6217507;23;20051;-84
2023/09/02 02:41:38;;;;;;;13.38;8.02;;;13.10;99.90;;;;;;6216242;23;20424;-84
2023/09/02 02:44:27;;;;;;;11.85;8.05;;;13.30;99.90;;;;;;6194912;23;20033;-84
2023/09/02 02:47:15;;;;;;;10.30;7.47;;;13.30;99.90;;;;;;6192549;23;20028;-84
2023/09/02 02:50:05;;;;;;;13.82;7.63;;;13.30;99.90;;;;;;6215412;23;20328;-83
2023/09/02 02:52:52;;;;;;;14.30;6.78;;;13.30;99.90;;;;;;6215520;23;20412;-84
2023/09/02 02:55:41;;;;;;;15.10;8.02;;;13.30;99.90;;;;;;6192786;23;20421;-84
2023/09/02 02:58:29;;;;;;;11.45;7.57;;;13.30;99.90;;;;;;6214774;23;20420;-84
2023/09/02 03:01:19;;;;;;;14.75;10.02;;;13.20;99.90;;;;;;6215472;23;20032;-84
2023/09/02 03:04:08;;;;;;;17.38;9.63;;;13.10;99.90;;;;;;6193157;23;20070;-85
2023/09/02 03:06:57;;;;;;;11.20;7.68;;;12.90;99.90;;;;;;6215383;23;20037;-85
2023/09/02 03:09:44;;;;;;;10.82;7.38;;;12.80;99.90;;;;;;6191481;23;20029;-84
2023/09/02 03:12:32;;;;;;;15.85;8.52;;;12.70;99.90;;;;;;6191299;23;20028;-84
2023/09/02 03:15:19;;;;;;;12.25;7.60;;;12.70;99.90;;;;;;6214441;23;20035;-84
2023/09/02 03:18:09;;;;;;;13.75;7.65;;;12.80;99.90;;;;;;6215829;23;20072;-83
2023/09/02 03:21:06;;;;;;;12.18;6.90;;;12.80;99.90;;;;;;6194043;23;20040;-84
2023/09/02 03:23:53;;;;;;;13.25;6.82;;;12.80;99.90;;;;;;6213514;23;20039;-85
2023/09/02 03:26:40;;;;;;;11.68;7.60;;;12.70;99.90;;;;;;6215652;23;20032;-85
2023/09/02 03:29:29;;;;;;;10.27;7.50;;;12.70;99.90;;;;;;6198999;23;20020;-91
2023/09/02 03:32:19;;;;;;;12.27;7.07;;;12.70;99.90;;;;;;6210072;23;20012;-89
2023/09/02 03:35:10;;;;;;;12.02;7.55;;;12.70;99.90;;;;;;6203550;23;20654;-89
2023/09/02 03:37:58;;;;;;;14.27;8.45;;;12.60;99.90;;;;;;6198145;23;20020;-89
2023/09/02 03:40:46;;;;;;;14.88;7.85;;;12.50;99.90;;;;;;6220518;23;20038;-92
2023/09/02 03:43:34;;;;;;;13.32;7.93;;;12.50;99.90;;;;;;6198433;23;20029;-91
2023/09/02 03:46:24;;;;;;;9.68;7.45;;;12.60;99.90;;;;;;6197166;23;20025;-91
2023/09/02 03:49:11;;;;;;;10.77;7.25;;;12.60;99.90;;;;;;6197239;23;20021;-90
2023/09/02 03:51:59;;;;;;;8.93;6.85;;;12.50;99.90;;;;;;6218851;23;20021;-90
2023/09/02 03:54:48;;;;;;;11.68;6.88;;;12.40;99.90;;;;;;6197145;23;20020;-89
2023/09/02 03:57:35;;;;;;;11.60;7.03;;;12.30;99.90;;;;;;6225715;23;20024;-91
2023/09/02 04:00:26;;;;;;;12.02;7.60;;;12.30;99.90;;;;;;6203305;23;20093;-90
2023/09/02 04:03:15;;;;;;;14.48;7.70;;;12.30;99.90;;;;;;6221380;23;20038;-92
2023/09/02 04:06:04;;;;;;;12.23;7.50;;;12.30;99.90;;;;;;6199808;23;20028;-90
2023/09/02 04:08:52;;;;;;;16.45;8.18;;;12.30;99.90;;;;;;6208670;23;20024;-90
2023/09/02 04:11:42;;;;;;;9.70;6.97;;;12.30;99.90;;;;;;6200574;23;20055;-91
2023/09/02 04:14:30;;;;;;;16.08;7.25;;;12.30;99.90;;;;;;6218380;23;20100;-92
2023/09/02 04:17:19;;;;;;;14.07;7.32;;;12.30;99.90;;;;;;6196915;23;20047;-91
2023/09/02 04:20:08;;;;;;;13.63;8.43;;;12.30;99.90;;;;;;6221025;23;20082;-90
2023/09/02 04:22:55;;;;;;;15.60;8.15;;;12.40;99.90;;;;;;6222004;23;20043;-91
2023/09/02 04:25:47;;;;;;;18.95;9.30;;;12.40;99.90;;;;;;6199452;23;20086;-91
2023/09/02 04:28:35;;;;;;;11.80;8.30;;;12.50;99.90;;;;;;6218907;23;20503;-91
2023/09/02 04:31:23;;;;;;;14.55;8.43;;;12.50;99.90;;;;;;6195898;23;20021;-90
2023/09/02 04:34:11;;;;;;;22.13;8.82;;;12.60;99.90;;;;;;6198317;23;20029;-91
2023/09/02 04:36:58;;;;;;;11.88;8.15;;;12.60;99.90;;;;;;6197444;23;20420;-91
2023/09/02 04:39:45;;;;;;;12.65;7.85;;;12.40;99.90;;;;;;6221364;23;20406;-91
2023/09/02 04:42:33;;;;;;;13.27;7.43;;;12.30;99.90;;;;;;6198314;23;20124;-91
2023/09/02 04:45:21;;;;;;;14.77;7.63;;;12.20;99.90;;;;;;6198821;23;20107;-91
2023/09/02 04:48:09;;;;;;;11.73;7.68;;;12.20;99.90;;;;;;6198445;23;20024;-91
2023/09/02 04:50:58;;;;;;;12.73;7.60;;;12.10;99.90;;;;;;6200645;23;20029;-90
2023/09/02 04:53:46;;;;;;;12.60;7.60;;;12.10;99.90;;;;;;6200618;23;20024;-89
2023/09/02 04:56:33;;;;;;;15.43;8.60;;;12.10;99.90;;;;;;6222968;23;20025;-92
2023/09/02 04:59:20;;;;;;;21.15;10.65;;;12.10;99.90;;;;;;6225045;23;20112;-92
2023/09/02 05:02:07;;;;;;;14.15;8.70;;;12.10;99.90;;;;;;6206428;23;20055;-90
2023/09/02 05:04:54;;;;;;;16.08;9.02;;;12.10;99.90;;;;;;6213876;23;20035;-90
2023/09/02 05:07:42;;;;;;;13.60;8.63;;;12.20;99.90;;;;;;6217146;23;20025;-88
2023/09/02 05:10:29;;;;;;;42.97;21.65;;;12.30;99.90;;;;;;6238092;23;20056;-88
2023/09/02 05:13:16;;;;;;;14.82;8.55;;;12.30;99.90;;;;;;6240638;22;20016;-82
2023/09/02 05:16:04;;;;;;;14.40;9.02;;;12.50;99.90;;;;;;6219590;23;20008;-81
2023/09/02 05:18:51;;;;;;;12.77;8.55;;;12.40;99.90;;;;;;6240733;22;20023;-82
2023/09/02 05:21:38;;;;;;;13.48;8.07;;;12.40;99.90;;;;;;6219715;22;20023;-86
2023/09/02 05:24:34;;;;;;;10.57;8.05;;;12.40;99.90;;;;;;6242226;22;20060;-85
2023/09/02 05:27:22;;;;;;;11.63;8.13;;;12.40;99.90;;;;;;6231277;22;20009;-90
2023/09/02 05:30:10;;;;;;;12.50;7.53;;;12.40;99.90;;;;;;6215616;23;20044;-90
2023/09/02 05:33:00;;;;;;;16.85;8.10;;;12.50;99.90;;;;;;6214376;23;20016;-91
2023/09/02 05:35:48;;;;;;;12.40;8.63;;;12.50;99.90;;;;;;6210858;23;20021;-90
2023/09/02 05:38:36;;;;;;;14.07;8.95;;;12.60;99.90;;;;;;6204573;23;20031;-90
2023/09/02 05:41:24;;;;;;;16.92;8.77;;;12.70;99.90;;;;;;6200100;23;20028;-90
2023/09/02 05:44:12;;;;;;;13.30;9.23;;;12.70;99.90;;;;;;6220963;23;20118;-90
2023/09/02 05:47:00;;;;;;;12.43;8.70;;;12.70;99.90;;;;;;6198815;23;20038;-90
2023/09/02 05:49:48;;;;;;;14.38;9.38;;;12.70;99.90;;;;;;6197402;23;20086;-89
2023/09/02 05:52:38;;;;;;;14.70;9.45;;;12.80;99.90;;;;;;6198809;23;20028;-90
2023/09/02 05:55:26;;;;;;;13.90;10.18;;;12.80;99.90;;;;;;6204037;23;20396;-89
2023/09/02 05:58:15;;;;;;;13.43;9.38;;;13.00;99.90;;;;;;6208952;23;20035;-89
2023/09/02 06:01:03;;;;;;;13.93;9.90;;;13.10;99.90;;;;;;6197911;23;20028;-90
2023/09/02 06:03:51;;;;;;;13.02;9.73;;;13.20;99.90;;;;;;6197589;23;20074;-88
2023/09/02 06:06:39;;;;;;;13.13;8.82;;;13.20;99.90;;;;;;6199693;23;20055;-87
2023/09/02 06:09:27;;;;;;;17.42;9.90;;;13.40;99.90;;;;;;6197857;23;20447;-89
2023/09/02 06:12:15;;;;;;;14.70;9.63;;;13.50;99.90;;;;;;6218504;23;20021;-91
2023/09/02 06:15:02;;;;;;;13.35;8.65;;;13.60;99.90;;;;;;6195781;23;20051;-89
2023/09/02 06:17:50;;;;;;;13.45;9.18;;;13.70;99.90;;;;;;6198675;23;20300;-89
2023/09/02 06:20:37;;;;;;;12.77;8.70;;;13.90;99.90;;;;;;6199742;23;20078;-90
2023/09/02 06:23:28;;;;;;;11.48;8.25;;;14.00;99.90;;;;;;6218542;23;20044;-89
2023/09/02 06:26:17;;;;;;;10.40;7.93;;;14.00;99.90;;;;;;6196788;23;20040;-90
2023/09/02 06:29:06;;;;;;;13.65;8.13;;;14.10;99.90;;;;;;6199247;23;20036;-89
2023/09/02 06:31:54;;;;;;;11.05;7.65;;;14.20;99.90;;;;;;6194588;23;20095;-90
2023/09/02 06:34:41;;;;;;;11.63;7.30;;;14.30;99.90;;;;;;6197819;23;20029;-90
2023/09/02 06:37:31;;;;;;;11.55;6.63;;;14.40;99.90;;;;;;6197259;23;20024;-89
2023/09/02 06:40:21;;;;;;;11.23;6.72;;;14.60;99.90;;;;;;6198371;23;20024;-88
2023/09/02 06:43:09;;;;;;;9.07;5.78;;;14.70;99.90;;;;;;6196247;23;20387;-88
2023/09/02 06:45:56;;;;;;;10.27;6.20;;;14.90;99.90;;;;;;6218584;23;20024;-90
2023/09/02 06:48:44;;;;;;;6.05;5.32;;;15.00;99.90;;;;;;6195821;23;20444;-88
2023/09/02 06:51:31;;;;;;;6.00;4.95;;;15.20;99.90;;;;;;6197881;23;20518;-90
2023/09/02 06:54:19;;;;;;;5.60;4.25;;;15.40;99.90;;;;;;6200098;23;20523;-92
2023/09/02 06:57:06;;;;;;;6.82;4.07;;;15.70;99.90;;;;;;6198659;23;20021;-90
2023/09/02 06:59:53;;;;;;;5.88;4.07;;;16.00;99.90;;;;;;6217839;23;20042;-90
2023/09/02 07:02:42;;;;;;;6.70;3.45;;;16.10;99.90;;;;;;6218300;23;20025;-91
2023/09/02 07:05:29;;;;;;;5.72;3.58;;;16.40;99.90;;;;;;6223004;23;20118;-92
2023/09/02 07:12:27;;;;;;;10.45;3.30;;;16.90;99.90;;;;;;6219084;23;20090;-92
2023/09/02 07:15:14;;;;;;;5.40;2.92;;;17.40;99.90;;;;;;6220949;23;20056;-88
2023/09/02 07:18:04;;;;;;;6.25;2.72;;;17.60;99.90;;;;;;6196755;23;20025;-92
2023/09/02 07:20:56;;;;;;;3.92;2.30;;;17.80;99.90;;;;;;6199154;23;20021;-91
2023/09/02 07:23:43;;;;;;;3.83;2.67;;;18.00;99.90;;;;;;6197007;23;20039;-90
2023/09/02 07:26:32;;;;;;;3.83;2.47;;;18.10;99.90;;;;;;6217845;23;20024;-91
2023/09/02 07:29:23;;;;;;;4.55;2.83;;;18.10;99.90;;;;;;6178341;23;20024;-91
2023/09/02 07:32:10;;;;;;;3.67;2.78;;;18.20;99.90;;;;;;6217897;23;20017;-89
2023/09/02 07:34:57;;;;;;;5.55;2.50;;;18.20;99.90;;;;;;6196841;23;20116;-92
2023/09/02 07:37:44;;;;;;;4.82;2.40;;;18.40;99.90;;;;;;6219064;23;20032;-92
2023/09/02 07:40:32;;;;;;;5.68;2.70;;;18.60;99.90;;;;;;6219148;23;20025;-90
2023/09/02 07:43:56;;;;;;;4.72;2.67;;;19.00;99.90;;;;;;6216630;23;20024;-88
2023/09/02 07:46:43;;;;;;;5.18;2.72;;;19.20;99.90;;;;;;6218061;23;20032;-86
2023/09/02 07:49:46;;;;;;;3.85;2.22;;;19.20;99.90;;;;;;6218970;23;20029;-92
2023/09/02 07:52:36;;;;;;;3.30;2.05;;;19.50;94.40;;;;;;6219103;23;20208;-92
2023/09/02 07:55:24;;;;;;;2.88;2.30;;;19.70;99.90;;;;;;6225240;23;20028;-91
2023/09/02 07:58:28;;;;;;;5.47;2.42;;;19.90;99.90;;;;;;6222703;23;20059;-90
2023/09/02 08:01:21;;;;;;;3.58;2.30;;;20.20;1.00;;;;;;6230573;22;20021;-92
2023/09/02 08:04:14;;;;;;;2.28;1.80;;;20.60;99.90;;;;;;6223930;23;20120;-91
2023/09/02 08:07:03;;;;;;;7.13;1.90;;;20.80;99.90;;;;;;6225175;23;20051;-91
2023/09/02 08:09:54;;;;;;;3.33;2.00;;;21.20;88.80;;;;;;6197904;23;20071;-91
2023/09/02 08:12:42;;;;;;;2.38;1.83;;;21.60;1.00;;;;;;6223632;23;20025;-88
2023/09/02 08:15:30;;;;;;;3.97;2.00;;;22.10;99.90;;;;;;6221811;23;20016;-88
2023/09/02 08:18:17;;;;;;;2.67;1.85;;;22.40;99.90;;;;;;6223264;23;20025;-89
2023/09/02 08:21:09;;;;;;;2.85;1.88;;;22.70;99.90;;;;;;6220222;23;20058;-90
2023/09/02 08:23:56;;;;;;;2.58;1.90;;;23.00;99.90;;;;;;6225004;23;20400;-91
2023/09/02 08:26:46;;;;;;;4.22;2.22;;;23.00;37.30;;;;;;6209212;23;20036;-89
2023/09/02 08:29:35;;;;;;;3.92;1.90;;;23.10;35.70;;;;;;6222278;23;20292;-89
2023/09/02 08:32:25;;;;;;;4.95;1.83;;;23.60;1.00;;;;;;6197087;23;20024;-90
2023/09/02 08:35:12;;;;;;;2.03;1.48;;;24.10;1.00;;;;;;6218632;23;20078;-89
2023/09/02 08:38:02;;;;;;;2.92;1.90;;;24.30;1.00;;;;;;6221519;23;20024;-90
2023/09/02 08:40:52;;;;;;;4.03;1.85;;;24.40;99.90;;;;;;6204558;23;20028;-89
2023/09/02 08:43:40;;;;;;;4.40;1.67;;;24.80;99.90;;;;;;6203272;23;20029;-89
2023/09/02 08:46:31;;;;;;;4.30;1.90;;;24.80;99.90;;;;;;6223603;23;20024;-88
2023/09/02 08:49:25;;;;;;;2.60;1.42;;;25.50;99.90;;;;;;6220022;23;20032;-87
2023/09/02 08:52:15;;;;;;;4.72;1.50;;;25.50;99.90;;;;;;6221722;23;20032;-90
2023/09/02 08:55:03;;;;;;;4.53;1.77;;;25.60;99.90;;;;;;6199673;23;20020;-89
2023/09/02 08:57:52;;;;;;;2.72;1.60;;;25.80;99.90;;;;;;6202615;23;20071;-91
2023/09/02 09:00:41;;;;;;;3.03;1.50;;;25.90;99.90;;;;;;6229494;23;20032;-90
2023/09/02 09:03:29;;;;;;;4.10;1.50;;;26.80;99.90;;;;;;6227179;23;20079;-91
2023/09/02 09:06:22;;;;;;;1.67;1.42;;;27.50;99.90;;;;;;6201413;23;20029;-89
2023/09/02 09:09:10;;;;;;;1.92;1.50;;;27.30;99.90;;;;;;6222716;23;20070;-89
2023/09/02 09:12:01;;;;;;;2.17;1.35;;;27.20;99.90;;;;;;6226652;23;20092;-89
2023/09/02 09:14:53;;;;;;;3.22;1.55;;;27.40;99.90;;;;;;6225910;23;20025;-91
2023/09/02 09:17:41;;;;;;;;;;;28.60;99.90;;;;;;6203196;23;20020;-88
2023/09/02 09:20:28;;;;;;;2.05;1.30;;;29.10;99.90;;;;;;6222898;23;19916;-89
2023/09/02 09:23:15;;;;;;;2.47;1.50;;;29.00;99.90;;;;;;6220751;23;20034;-92
2023/09/02 09:26:04;;;;;;;6.28;1.60;;;29.40;99.90;;;;;;6223119;23;20100;-91
2023/09/02 09:28:53;;;;;;;2.00;1.20;;;30.20;99.90;;;;;;6222869;23;20020;-91
2023/09/02 09:31:40;;;;;;;2.95;1.42;;;30.60;99.90;;;;;;6223679;23;20032;-90
2023/09/02 09:34:38;;;;;;;1.75;1.40;;;30.10;99.90;;;;;;6224532;23;20055;-86
2023/09/02 09:37:28;;;;;;;4.05;1.60;;;29.70;99.90;;;;;;6224062;23;20029;-92
2023/09/02 09:40:30;;;;;;;2.20;1.40;;;29.40;99.90;;;;;;6227357;23;20024;-92
2023/09/02 09:43:24;;;;;;;2.53;1.48;;;29.90;99.90;;;;;;6223878;23;20035;-90
2023/09/02 09:46:17;;;;;;;1.63;1.48;;;30.50;96.60;;;;;;6219317;23;20047;-88
2023/09/02 09:49:07;;;;;;;2.80;1.42;;;30.00;92.40;;;;;;6217959;23;20058;-90
2023/09/02 09:52:00;;;;;;;1.75;1.15;;;29.70;86.70;;;;;;6218720;23;20024;-90
2023/09/02 09:54:52;;;;;;;1.65;1.50;;;30.10;85.70;;;;;;6219449;23;20048;-89
2023/09/02 09:57:39;;;;;;;2.22;1.50;;;29.90;70.70;;;;;;6220064;23;20024;-90
2023/09/02 10:00:28;;;;;;;1.55;1.02;;;29.50;63.00;;;;;;6198560;23;20024;-90
2023/09/02 10:03:18;;;;;;;1.73;1.30;;;29.50;72.00;;;;;;6217183;23;20341;-91
2023/09/02 10:06:05;;;;;;;2.42;1.38;;;29.10;54.40;;;;;;6220546;23;20044;-90
2023/09/02 10:08:54;;;;;;;3.03;1.30;;;28.70;49.90;;;;;;6219314;23;20408;-93
2023/09/02 10:11:43;;;;;;;2.03;1.40;;;28.30;49.90;;;;;;6219512;23;20467;-90
2023/09/02 10:14:33;;;;;;;2.33;1.13;;;29.00;47.20;;;;;;6220033;23;20028;-91
2023/09/02 10:17:20;;;;;;;1.13;1.00;;;29.70;41.40;;;;;;6198776;23;20029;-91
2023/09/02 10:20:09;;;;;;;4.57;1.60;;;30.70;34.20;;;;;;6220742;23;20021;-90
2023/09/02 10:23:04;;;;;;;3.05;1.38;;;30.60;29.50;;;;;;6218120;23;20028;-90
2023/09/02 10:26:01;;;;;;;1.98;1.02;;;29.60;19.80;;;;;;6219374;23;20028;-91
2023/09/02 10:28:49;;;;;;;3.70;1.17;;;29.30;20.50;;;;;;6219100;23;20024;-92
2023/09/02 10:31:40;;;;;;;2.22;1.20;;;29.30;19.80;;;;;;6219879;23;20020;-92
2023/09/02 10:34:39;;;;;;;2.08;1.08;;;29.50;17.20;;;;;;6220873;23;20036;-90
2023/09/02 10:37:33;;;;;;;2.28;1.20;;;30.40;18.00;;;;;;6220986;23;20024;-93
2023/09/02 10:40:23;;;;;;;1.42;1.00;;;31.60;7.10;;;;;;6196757;23;20036;-90
2023/09/02 10:43:11;;;;;;;1.83;0.93;;;30.60;2.40;;;;;;6197541;23;20025;-90
2023/09/02 10:46:04;;;;;;;2.45;1.10;;;29.90;1.00;;;;;;6196462;23;20021;-91
2023/09/02 10:48:51;;;;;;;1.77;1.38;;;30.30;1.00;;;;;;6218614;23;20082;-92
2023/09/02 10:51:41;;;;;;;1.88;1.00;;;30.00;1.00;;;;;;6219299;23;20028;-93
2023/09/02 10:55:00;;;;;;;2.08;1.20;;;29.80;1.00;;;;;;6218066;23;20070;-94
2023/09/02 10:57:55;;;;;;;3.03;1.02;;;30.70;1.00;;;;;;6199326;23;20035;-90
2023/09/02 11:00:46;;;;;;;2.05;1.02;;;31.60;1.00;;;;;;6218405;23;20025;-91
2023/09/02 11:03:51;;;;;;;2.03;1.13;;;32.40;1.00;;;;;;6218784;23;20096;-91
2023/09/02 11:07:16;;;;;;;2.35;1.13;;;33.70;1.00;;;;;;6201645;23;20035;-93
2023/09/02 11:10:46;;;;;;;1.10;1.00;;;33.40;1.00;;;;;;6225726;23;20028;-91
2023/09/02 11:14:25;;;;;;;1.85;1.02;;;33.60;1.00;;;;;;6197203;23;20035;-90
2023/09/02 11:17:30;;;;;;;2.20;1.30;;;34.10;1.00;;;;;;6219726;23;20025;-92
2023/09/02 11:29:00;;;;;;;1.98;1.10;;;35.20;1.00;;;;;;6074930;23;20046;-90
2023/09/02 11:32:09;;;;;;;1.23;0.93;;;34.70;1.00;;;;;;6101674;23;20022;-91
2023/09/02 11:35:07;;;;;;;;;;;;;;;;;;;;;
2023/09/02 11:37:57;;;;;;;1.55;1.17;;;34.80;1.00;;;;;;6131169;23;20036;-92
2023/09/02 11:40:46;;;;;;;2.70;1.40;;;33.90;1.00;;;;;;6108847;23;20018;-93
2023/09/02 11:43:36;;;;;;;1.02;0.88;;;33.20;1.00;;;;;;6127105;23;20053;-91
2023/09/02 11:46:23;;;;;;;3.45;1.02;;;33.90;1.00;;;;;;6128916;23;20037;-91
2023/09/02 11:49:20;;;;;;;1.48;1.38;;;34.80;1.00;;;;;;6108046;23;20073;-89
2023/09/02 11:52:12;;;;;;;1.10;1.00;;;35.10;1.00;;;;;;6111088;23;20030;-92
2023/09/02 11:55:13;;;;;;;3.22;0.98;;;35.30;1.00;;;;;;6219126;23;20025;-91
2023/09/02 11:58:07;;;;;;;1.80;0.93;;;34.50;1.00;;;;;;6221447;23;20025;-91
2023/09/02 12:00:57;;;;;;;2.42;1.10;;;33.90;1.00;;;;;;6219235;23;20087;-92
2023/09/02 12:03:47;;;;;;;3.03;1.08;;;34.00;1.00;;;;;;6198160;23;20021;-91
2023/09/02 12:06:34;;;;;;;1.08;0.95;;;33.60;1.00;;;;;;6198404;23;20021;-92
2023/09/02 12:09:26;;;;;;;2.75;1.35;;;34.60;1.00;;;;;;6217818;23;20276;-88
2023/09/02 12:12:16;;;;;;;3.13;1.58;;;35.70;1.00;;;;;;6198362;23;20021;-91
2023/09/02 12:15:04;;;;;;;3.40;1.15;;;36.40;1.00;;;;;;6220903;23;20028;-91
2023/09/02 12:17:51;;;;;;;2.60;1.42;;;37.20;1.00;;;;;;6199344;23;20028;-90
2023/09/02 12:20:39;;;;;;;1.20;1.10;;;37.40;1.00;;;;;;6218686;23;20650;-87
2023/09/02 12:23:26;;;;;;;1.13;1.02;;;37.10;1.00;;;;;;6199328;23;20036;-90
2023/09/02 12:26:13;;;;;;;1.83;1.35;;;36.80;1.00;;;;;;6195854;23;20049;-89
2023/09/02 12:29:01;;;;;;;2.33;0.93;;;37.50;1.00;;;;;;6218370;23;20087;-88
2023/09/02 12:32:05;;;;;;;1.83;1.20;;;37.70;1.00;;;;;;6199670;23;20020;-92
2023/09/02 12:34:53;;;;;;;1.00;0.85;;;37.90;1.00;;;;;;6218675;23;20025;-90
2023/09/02 12:37:42;;;;;;;3.42;1.13;;;37.90;1.00;;;;;;6196919;23;20031;-92
2023/09/02 12:40:31;;;;;;;1.37;1.13;;;37.80;1.00;;;;;;6219087;23;20024;-91
2023/09/02 12:43:29;;;;;;;2.05;1.00;;;38.60;1.00;;;;;;6220215;23;20240;-91
2023/09/02 12:46:22;;;;;;;2.85;1.42;;;38.90;1.00;;;;;;6197277;23;20029;-89
2023/09/02 12:49:09;;;;;;;1.58;1.00;;;37.70;1.00;;;;;;6220432;23;20024;-90
2023/09/02 12:51:58;;;;;;;2.17;1.38;;;37.00;1.00;;;;;;6199815;23;20471;-89
2023/09/02 12:54:54;;;;;;;2.85;1.30;;;36.50;1.00;;;;;;6221768;23;20039;-91
2023/09/02 12:57:41;;;;;;;2.40;1.20;;;35.70;1.00;;;;;;6198977;23;20028;-90
2023/09/02 13:00:28;;;;;;;1.60;1.33;;;35.00;1.00;;;;;;6220608;23;20036;-90
2023/09/02 13:03:15;;;;;;;1.50;1.00;;;35.20;1.00;;;;;;6222273;23;20211;-90
2023/09/02 13:06:03;;;;;;;1.30;1.00;;;36.20;1.00;;;;;;6216948;23;20032;-91
2023/09/02 13:08:51;;;;;;;3.58;1.23;;;36.60;1.00;;;;;;6217074;23;20020;-87
2023/09/02 13:11:38;;;;;;;3.10;1.20;;;37.70;1.00;;;;;;6196248;23;20020;-91
2023/09/02 13:14:27;;;;;;;1.92;1.30;;;38.70;1.00;;;;;;6222592;23;20246;-91
2023/09/02 13:17:18;;;;;;;2.67;1.20;;;40.00;1.00;;;;;;6217280;23;20020;-91
2023/09/02 13:20:06;;;;;;;2.13;1.20;;;39.60;1.00;;;;;;6196354;23;20051;-90
2023/09/02 13:23:40;;;;;;;1.35;1.25;;;39.30;1.00;;;;;;6220152;23;20028;-89
2023/09/02 13:26:55;;;;;;;2.95;1.10;;;38.80;1.00;;;;;;6224219;23;20024;-90
2023/09/02 13:29:43;;;;;;;1.55;1.30;;;37.90;1.00;;;;;;6220565;23;20033;-92
2023/09/02 13:41:14;;;;;;;2.53;1.20;;;37.50;1.00;;;;;;6221700;23;20395;-91
2023/09/02 14:00:55;;;;;;;1.90;1.30;;;34.10;1.00;;;;;;6221691;23;20043;-92
2023/09/02 14:37:15;;;;;;;2.15;1.35;;;28.10;1.00;;;;;;6186033;23;20036;-91
2023/09/02 14:41:11;;;;;;;3.30;1.48;;;27.10;1.00;;;;;;6047661;23;20023;-89
2023/09/02 14:52:25;;;;;;;2.80;1.50;;;28.30;1.00;;;;;;6038631;23;20442;-91
2023/09/02 15:16:07;;;;;;;2.95;1.60;;;26.00;1.00;;;;;;6095916;23;20002;-90
2023/09/02 15:18:54;;;;;;;2.17;1.60;;;26.30;1.00;;;;;;6098905;23;20031;-93
2023/09/02 15:21:42;;;;;;;1.98;1.42;;;26.80;1.00;;;;;;6097716;23;20056;-90
2023/09/02 15:24:37;;;;;;;2.22;1.67;;;27.60;1.00;;;;;;6121330;23;20030;-90
2023/09/02 15:27:25;;;;;;;2.17;1.60;;;27.30;1.00;;;;;;6160985;23;20052;-90
2023/09/02 15:30:15;;;;;;;1.35;1.25;;;26.90;1.00;;;;;;6158109;23;20030;-91
2023/09/02 15:33:05;;;;;;;2.20;1.65;;;26.60;1.00;;;;;;6158261;23;20073;-91
2023/09/02 15:35:57;;;;;;;3.10;1.60;;;26.50;1.00;;;;;;6160132;23;20021;-91
2023/09/02 15:38:44;;;;;;;4.80;2.13;;;26.30;1.00;;;;;;6162361;23;20032;-92
2023/09/02 15:41:32;;;;;;;4.57;2.38;;;26.80;1.00;;;;;;6157808;23;20025;-92
2023/09/02 15:44:21;;;;;;;2.08;1.40;;;27.50;1.00;;;;;;6158623;23;20428;-91
2023/09/02 15:47:11;;;;;;;1.60;1.50;;;27.60;1.00;;;;;;6157703;23;20329;-91
2023/09/02 15:50:01;;;;;;;3.60;1.70;;;27.90;1.00;;;;;;6159266;23;20026;-91
2023/09/02 15:53:08;;;;;;;2.50;1.60;;;28.10;1.00;;;;;;6159628;23;20029;-90
2023/09/02 15:56:00;;;;;;;3.97;1.65;;;28.40;1.00;;;;;;6156205;23;20036;-92
2023/09/02 15:58:47;;;;;;;2.00;1.63;;;28.10;1.00;;;;;;6159196;23;20021;-92
2023/09/02 16:01:34;;;;;;;3.40;2.10;;;27.30;1.00;;;;;;6156574;23;20025;-91
2023/09/02 16:04:22;;;;;;;3.60;2.33;;;26.90;1.00;;;;;;6158744;23;20025;-90
2023/09/02 16:07:09;;;;;;;5.10;2.05;;;27.50;1.00;;;;;;6157684;23;20028;-85
2023/09/02 16:09:56;;;;;;;3.95;2.42;;;28.40;1.00;;;;;;6158945;23;20059;-92
2023/09/02 16:12:43;;;;;;;2.85;1.90;;;29.20;1.00;;;;;;6162123;23;20343;-90
2023/09/02 16:15:31;;;;;;;2.28;1.70;;;29.70;1.00;;;;;;6161004;23;20068;-91
2023/09/02 16:18:18;;;;;;;4.72;1.88;;;30.00;1.00;;;;;;6163406;23;20021;-89
2023/09/02 16:21:05;;;;;;;3.85;1.70;;;30.50;1.00;;;;;;6165423;23;20033;-91
2023/09/02 16:23:53;;;;;;;3.42;1.75;;;30.70;1.00;;;;;;6171540;23;20433;-90
2023/09/02 16:26:40;;;;;;;3.30;1.77;;;30.30;1.00;;;;;;6176028;23;20030;-88
2023/09/02 16:29:29;;;;;;;3.17;1.80;;;29.40;1.00;;;;;;6175088;23;20036;-91
2023/09/02 16:32:22;;;;;;;2.35;1.48;;;29.40;1.00;;;;;;6170513;23;20025;-89